createdAt,value
2019-05-22T00:01:55.449Z,99.90
2019-05-22T00:04:38.149Z,99.90
2019-05-22T00:07:20.176Z,99.90
2019-05-22T00:10:01.797Z,99.90
2019-05-22T00:12:46.589Z,99.90
2019-05-22T00:15:26.649Z,99.90
2019-05-22T00:18:07.681Z,99.90
2019-05-22T00:20:49.304Z,99.90
2019-05-22T00:23:30.780Z,99.90
2019-05-22T00:26:11.944Z,99.90
2019-05-22T00:28:54.267Z,99.90
2019-05-22T00:31:35.395Z,99.90
2019-05-22T00:34:17.305Z,99.90
2019-05-22T00:36:58.560Z,99.90
2019-05-22T00:39:40.390Z,99.90
2019-05-22T00:42:20.976Z,99.90
2019-05-22T00:45:02.600Z,99.90
2019-05-22T00:47:44.012Z,99.90
2019-05-22T00:50:30.488Z,99.90
2019-05-22T00:53:31.869Z,99.90
2019-05-22T00:59:17.938Z,99.90
2019-05-22T01:02:02.988Z,99.90
2019-05-22T01:04:43.557Z,99.90
2019-05-22T01:10:33.256Z,99.90
2019-05-22T01:13:15.274Z,99.90
2019-05-22T01:15:56.277Z,99.90
2019-05-22T01:18:38.768Z,99.90
2019-05-22T01:21:22.207Z,99.90
2019-05-22T01:24:04.484Z,99.90
2019-05-22T01:26:46.744Z,99.90
2019-05-22T01:29:27.435Z,99.90
2019-05-22T01:35:16.766Z,99.90
2019-05-22T01:37:58.113Z,99.90
2019-05-22T01:40:39.444Z,99.90
2019-05-22T01:43:24.228Z,99.90
2019-05-22T01:46:06.437Z,99.90
2019-05-22T01:48:48.324Z,99.90
2019-05-22T01:51:28.529Z,99.90
2019-05-22T01:54:11.314Z,99.90
2019-05-22T01:56:52.289Z,99.90
2019-05-22T01:59:34.500Z,99.90
2019-05-22T02:02:16.166Z,99.90
2019-05-22T02:04:58.398Z,99.90
2019-05-22T02:07:38.756Z,99.90
2019-05-22T02:10:19.836Z,99.90
2019-05-22T02:13:00.639Z,99.90
2019-05-22T02:15:41.416Z,99.90
2019-05-22T02:18:22.971Z,99.90
2019-05-22T02:21:04.532Z,99.90
2019-05-22T02:23:45.670Z,99.90
2019-05-22T02:26:27.470Z,99.90
2019-05-22T02:29:08.547Z,99.90
2019-05-22T02:31:54.485Z,99.90
2019-05-22T02:34:33.693Z,99.90
2019-05-22T02:37:15.789Z,99.90
2019-05-22T02:39:56.793Z,99.90
2019-05-22T02:42:37.732Z,99.90
2019-05-22T02:45:20.215Z,99.90
2019-05-22T02:48:01.781Z,99.90
2019-05-22T02:50:42.524Z,99.90
2019-05-22T02:53:23.841Z,99.90
2019-05-22T02:56:05.397Z,99.90
2019-05-22T02:58:46.166Z,99.90
2019-05-22T03:01:27.216Z,99.90
2019-05-22T03:04:09.714Z,99.90
2019-05-22T03:06:52.507Z,99.90
2019-05-22T03:09:33.715Z,99.90
2019-05-22T03:12:16.013Z,99.90
2019-05-22T03:14:56.653Z,99.90
2019-05-22T03:17:38.656Z,99.90
2019-05-22T03:20:19.704Z,99.90
2019-05-22T03:23:00.977Z,99.90
2019-05-22T03:25:41.910Z,99.90
2019-05-22T03:28:23.099Z,99.90
2019-05-22T03:31:04.844Z,99.90
2019-05-22T03:33:45.591Z,99.90
2019-05-22T03:36:25.985Z,99.90
2019-05-22T03:39:07.729Z,99.90
2019-05-22T03:41:48.090Z,99.90
2019-05-22T03:44:29.412Z,99.90
2019-05-22T03:47:10.977Z,99.90
2019-05-22T03:49:51.172Z,99.90
2019-05-22T03:52:31.777Z,99.90
2019-05-22T03:55:12.971Z,99.90
2019-05-22T03:57:54.124Z,99.90
2019-05-22T04:00:34.545Z,99.90
2019-05-22T04:03:17.302Z,99.90
2019-05-22T04:05:58.860Z,99.90
2019-05-22T04:08:39.882Z,99.90
2019-05-22T04:11:20.924Z,99.90
2019-05-22T04:14:02.009Z,99.90
2019-05-22T04:16:44.496Z,99.90
2019-05-22T04:19:25.587Z,99.90
2019-05-22T04:22:07.939Z,99.90
2019-05-22T04:24:49.185Z,99.90
2019-05-22T04:27:30.122Z,99.90
2019-05-22T04:30:12.781Z,99.90
2019-05-22T04:32:53.650Z,99.90
2019-05-22T04:35:34.192Z,99.90
2019-05-22T04:38:15.441Z,99.90
2019-05-22T04:40:56.643Z,99.90
2019-05-22T04:43:37.898Z,99.90
2019-05-22T04:46:18.708Z,99.90
2019-05-22T04:48:59.181Z,99.90
2019-05-22T04:51:39.570Z,99.90
2019-05-22T04:54:20.456Z,99.90
2019-05-22T04:57:02.037Z,99.90
2019-05-22T04:59:43.048Z,99.90
2019-05-22T05:02:23.600Z,99.90
2019-05-22T05:05:05.677Z,99.90
2019-05-22T05:07:46.831Z,99.90
2019-05-22T05:10:27.396Z,99.90
2019-05-22T05:13:09.220Z,99.90
2019-05-22T05:15:50.312Z,99.90
2019-05-22T05:18:30.963Z,99.90
2019-05-22T05:21:12.012Z,99.90
2019-05-22T05:23:52.490Z,99.90
2019-05-22T05:26:34.651Z,99.90
2019-05-22T05:29:14.854Z,99.90
2019-05-22T05:31:56.075Z,99.90
2019-05-22T05:34:36.534Z,99.90
2019-05-22T05:37:18.680Z,99.90
2019-05-22T05:39:59.609Z,99.90
2019-05-22T05:42:40.309Z,99.90
2019-05-22T05:45:20.795Z,99.90
2019-05-22T05:48:01.257Z,99.90
2019-05-22T05:50:42.841Z,99.90
2019-05-22T05:53:24.908Z,99.90
2019-05-22T05:56:07.031Z,99.90
2019-05-22T05:58:47.545Z,99.90
2019-05-22T06:01:29.974Z,99.90
2019-05-22T06:04:10.953Z,99.90
2019-05-22T06:06:53.690Z,99.90
2019-05-22T06:09:34.797Z,99.90
2019-05-22T06:12:16.604Z,99.90
2019-05-22T06:14:57.536Z,99.90
2019-05-22T06:17:40.032Z,99.90
2019-05-22T06:20:21.780Z,99.90
2019-05-22T06:23:02.551Z,99.90
2019-05-22T06:25:43.828Z,99.90
2019-05-22T06:28:24.577Z,99.90
2019-05-22T06:31:05.472Z,99.90
2019-05-22T06:33:46.094Z,99.90
2019-05-22T06:36:26.762Z,99.90
2019-05-22T06:39:08.993Z,99.90
2019-05-22T06:41:49.854Z,99.90
2019-05-22T06:44:33.738Z,99.90
2019-05-22T06:47:13.968Z,99.90
2019-05-22T06:50:39.025Z,99.90
2019-05-22T06:53:20.286Z,99.90
2019-05-22T06:56:00.929Z,99.90
2019-05-22T06:58:41.827Z,99.90
2019-05-22T07:01:22.848Z,99.90
2019-05-22T07:04:03.578Z,99.90
2019-05-22T07:06:44.527Z,99.90
2019-05-22T07:09:25.836Z,99.90
2019-05-22T07:12:08.759Z,99.90
2019-05-22T07:14:49.728Z,99.90
2019-05-22T07:17:31.072Z,99.90
2019-05-22T07:20:13.057Z,99.90
2019-05-22T07:22:53.822Z,99.90
2019-05-22T07:25:35.508Z,99.90
2019-05-22T07:28:16.955Z,99.90
2019-05-22T07:30:58.024Z,99.90
2019-05-22T07:33:38.612Z,99.90
2019-05-22T07:36:20.361Z,99.90
2019-05-22T07:39:01.350Z,99.90
2019-05-22T07:41:42.077Z,99.90
2019-05-22T07:44:22.850Z,99.90
2019-05-22T07:47:05.410Z,99.90
2019-05-22T07:49:46.754Z,99.90
2019-05-22T07:52:27.405Z,99.90
2019-05-22T07:55:08.496Z,99.90
2019-05-22T07:57:49.113Z,99.90
2019-05-22T08:00:29.994Z,99.90
2019-05-22T08:03:11.624Z,99.90
2019-05-22T08:05:52.005Z,99.90
2019-05-22T08:08:32.962Z,99.90
2019-05-22T08:11:14.391Z,99.90
2019-05-22T08:13:54.672Z,99.90
2019-05-22T08:16:35.251Z,99.90
2019-05-22T08:19:15.805Z,99.90
2019-05-22T08:22:06.915Z,99.90
2019-05-22T08:24:39.292Z,99.90
2019-05-22T08:27:19.957Z,99.90
2019-05-22T08:30:00.872Z,99.90
2019-05-22T08:32:41.328Z,99.90
2019-05-22T08:35:22.029Z,99.90
2019-05-22T08:38:02.214Z,99.90
2019-05-22T08:40:42.756Z,99.90
2019-05-22T08:43:23.589Z,99.90
2019-05-22T08:46:04.753Z,99.90
2019-05-22T08:48:48.068Z,99.90
2019-05-22T08:51:28.347Z,99.90
2019-05-22T08:54:08.976Z,99.90
2019-05-22T08:56:49.565Z,99.90
2019-05-22T08:59:30.588Z,99.90
2019-05-22T09:02:12.124Z,99.90
2019-05-22T09:04:53.157Z,99.90
2019-05-22T09:07:34.366Z,99.90
2019-05-22T09:10:15.313Z,99.90
2019-05-22T09:12:56.365Z,99.90
2019-05-22T09:15:38.607Z,99.90
2019-05-22T09:18:19.853Z,99.90
2019-05-22T09:21:00.551Z,99.90
2019-05-22T09:23:41.061Z,99.90
2019-05-22T09:26:22.712Z,99.90
2019-05-22T09:29:04.028Z,99.90
2019-05-22T09:31:45.079Z,99.90
2019-05-22T09:34:25.620Z,99.90
2019-05-22T09:37:06.669Z,99.90
2019-05-22T09:39:47.308Z,99.90
2019-05-22T09:42:28.020Z,99.90
2019-05-22T09:45:08.869Z,99.90
2019-05-22T09:47:49.414Z,99.90
2019-05-22T09:50:30.382Z,99.90
2019-05-22T09:53:11.319Z,99.90
2019-05-22T09:55:51.942Z,99.90
2019-05-22T09:58:33.096Z,99.90
2019-05-22T10:01:14.856Z,99.90
2019-05-22T10:03:55.757Z,99.90
2019-05-22T10:06:36.388Z,99.90
2019-05-22T10:09:17.048Z,99.90
2019-05-22T10:11:58.129Z,99.90
2019-05-22T10:14:39.669Z,99.90
2019-05-22T10:17:20.616Z,99.90
2019-05-22T10:20:01.248Z,99.90
2019-05-22T10:22:42.976Z,99.90
2019-05-22T10:25:24.047Z,99.90
2019-05-22T10:28:04.334Z,99.90
2019-05-22T10:30:45.456Z,99.90
2019-05-22T10:33:26.341Z,99.90
2019-05-22T10:36:06.878Z,99.90
2019-05-22T10:38:47.128Z,99.90
2019-05-22T10:41:28.464Z,99.90
2019-05-22T10:44:08.852Z,99.90
2019-05-22T10:46:49.760Z,99.90
2019-05-22T10:49:30.499Z,99.90
2019-05-22T10:52:11.608Z,99.90
2019-05-22T10:54:55.815Z,99.90
2019-05-22T10:57:34.776Z,99.90
2019-05-22T11:00:15.842Z,99.90
2019-05-22T11:02:56.792Z,99.90
2019-05-22T11:05:37.519Z,99.90
2019-05-22T11:08:17.918Z,99.90
2019-05-22T11:10:58.376Z,99.90
2019-05-22T11:13:40.537Z,99.90
2019-05-22T11:16:21.169Z,99.90
2019-05-22T11:19:01.898Z,99.90
2019-05-22T11:21:42.455Z,99.90
2019-05-22T11:24:22.880Z,99.90
2019-05-22T11:27:03.773Z,99.90
2019-05-22T11:29:44.870Z,99.90
2019-05-22T11:32:25.371Z,99.90
2019-05-22T11:35:06.211Z,99.90
2019-05-22T11:37:47.378Z,99.90
2019-05-22T11:40:28.377Z,99.90
2019-05-22T11:43:09.963Z,99.90
2019-05-22T11:45:51.116Z,99.90
2019-05-22T11:48:32.064Z,99.90
2019-05-22T11:51:13.158Z,99.90
2019-05-22T11:54:08.179Z,99.90
2019-05-22T11:56:36.277Z,99.90
2019-05-22T11:59:16.465Z,99.90
2019-05-22T12:01:57.713Z,99.90
2019-05-22T12:04:47.864Z,99.90
2019-05-22T12:07:21.296Z,99.90
2019-05-22T12:10:02.271Z,99.90
2019-05-22T12:12:43.235Z,99.90
2019-05-22T12:15:24.882Z,99.90
2019-05-22T12:18:06.705Z,99.90
2019-05-22T12:20:47.800Z,99.90
2019-05-22T12:23:28.580Z,99.90
2019-05-22T12:26:09.352Z,99.90
2019-05-22T12:28:50.080Z,99.90
2019-05-22T12:31:30.757Z,99.90
2019-05-22T12:34:11.241Z,99.90
2019-05-22T12:36:51.786Z,99.90
2019-05-22T12:39:32.864Z,99.90
2019-05-22T12:42:13.862Z,99.90
2019-05-22T12:44:54.564Z,99.90
2019-05-22T12:47:35.718Z,99.90
2019-05-22T12:50:18.290Z,99.90
2019-05-22T12:52:59.255Z,99.90
2019-05-22T12:55:40.544Z,99.90
2019-05-22T12:58:21.056Z,99.90
2019-05-22T13:01:02.222Z,99.90
2019-05-22T13:03:42.861Z,99.90
2019-05-22T13:06:23.562Z,99.90
2019-05-22T13:09:05.699Z,98.40
2019-05-22T13:11:46.472Z,98.30
2019-05-22T13:14:26.941Z,99.90
2019-05-22T13:17:09.366Z,98.90
2019-05-22T13:19:50.434Z,98.30
2019-05-22T13:22:31.479Z,96.70
2019-05-22T13:25:12.589Z,96.50
2019-05-22T13:27:53.447Z,98.70
2019-05-22T13:30:36.274Z,97.20
2019-05-22T13:33:17.741Z,98.90
2019-05-22T13:35:57.992Z,98.50
2019-05-22T13:38:38.587Z,97.30
2019-05-22T13:41:19.748Z,95.00
2019-05-22T13:44:01.076Z,96.20
2019-05-22T13:46:42.037Z,96.60
2019-05-22T13:49:22.437Z,96.90
2019-05-22T13:52:03.594Z,97.20
2019-05-22T13:54:44.888Z,96.50
2019-05-22T13:57:26.143Z,95.20
2019-05-22T14:00:09.514Z,94.70
2019-05-22T14:02:50.071Z,96.40
2019-05-22T14:05:30.800Z,95.30
2019-05-22T14:08:12.248Z,95.80
2019-05-22T14:10:52.933Z,97.30
2019-05-22T14:13:33.880Z,95.80
2019-05-22T14:16:14.761Z,96.20
2019-05-22T14:18:55.683Z,93.90
2019-05-22T14:21:36.894Z,94.50
2019-05-22T14:24:17.747Z,94.50
2019-05-22T14:26:58.550Z,94.00
2019-05-22T14:29:39.534Z,95.60
2019-05-22T14:32:20.245Z,95.10
2019-05-22T14:35:00.744Z,94.20
2019-05-22T14:37:41.256Z,95.30
2019-05-22T14:40:21.817Z,94.00
2019-05-22T14:43:02.396Z,93.50
2019-05-22T14:45:43.188Z,95.40
2019-05-22T14:48:24.069Z,94.00
2019-05-22T14:51:04.857Z,94.70
2019-05-22T14:53:45.500Z,94.90
2019-05-22T14:56:26.849Z,93.70
2019-05-22T14:59:08.164Z,93.90
2019-05-22T15:01:49.046Z,94.20
2019-05-22T15:04:29.757Z,93.70
2019-05-22T15:07:10.195Z,93.90
2019-05-22T15:09:50.987Z,94.20
2019-05-22T15:12:31.388Z,92.70
2019-05-22T15:15:12.693Z,93.90
2019-05-22T15:17:53.800Z,93.10
2019-05-22T15:20:35.870Z,95.00
2019-05-22T15:23:16.780Z,94.40
2019-05-22T15:25:57.572Z,94.80
2019-05-22T15:28:38.037Z,93.90
2019-05-22T15:31:19.106Z,94.10
2019-05-22T15:34:00.190Z,95.60
2019-05-22T15:36:42.629Z,94.80
2019-05-22T15:39:25.217Z,96.00
2019-05-22T15:42:06.306Z,96.90
2019-05-22T15:44:47.332Z,96.20
2019-05-22T15:47:28.304Z,95.30
2019-05-22T15:50:09.265Z,96.60
2019-05-22T15:52:50.185Z,95.70
2019-05-22T15:55:31.028Z,95.10
2019-05-22T15:58:11.853Z,95.80
2019-05-22T16:00:53.019Z,96.40
2019-05-22T16:03:34.087Z,94.30
2019-05-22T16:06:15.174Z,95.10
2019-05-22T16:08:55.870Z,95.30
2019-05-22T16:11:36.722Z,95.30
2019-05-22T16:14:18.096Z,95.30
2019-05-22T16:16:59.173Z,94.60
2019-05-22T16:19:40.007Z,94.10
2019-05-22T16:22:20.956Z,93.80
2019-05-22T16:25:02.037Z,95.60
2019-05-22T16:27:44.097Z,96.10
2019-05-22T16:30:25.381Z,95.60
2019-05-22T16:33:06.662Z,96.80
2019-05-22T16:35:47.343Z,96.10
2019-05-22T16:38:28.810Z,96.00
2019-05-22T16:41:10.108Z,96.70
2019-05-22T16:43:51.880Z,96.50
2019-05-22T16:46:33.492Z,96.80
2019-05-22T16:49:14.324Z,97.50
2019-05-22T16:51:54.809Z,96.90
2019-05-22T16:54:35.670Z,97.50
2019-05-22T16:57:16.365Z,97.00
2019-05-22T16:59:56.936Z,96.80
2019-05-22T17:02:37.917Z,97.20
2019-05-22T17:05:19.822Z,95.30
2019-05-22T17:08:00.323Z,96.40
2019-05-22T17:10:41.101Z,98.00
2019-05-22T17:13:21.954Z,98.00
2019-05-22T17:16:02.559Z,98.20
2019-05-22T17:18:47.431Z,98.90
2019-05-22T17:21:26.647Z,97.20
2019-05-22T17:24:07.747Z,96.10
2019-05-22T17:26:49.879Z,95.70
2019-05-22T17:29:31.816Z,96.90
2019-05-22T17:32:13.409Z,96.90
2019-05-22T17:34:54.279Z,98.40
2019-05-22T17:37:35.060Z,97.60
2019-05-22T17:40:16.988Z,96.40
2019-05-22T17:42:58.344Z,97.60
2019-05-22T17:45:39.276Z,98.90
2019-05-22T17:48:21.932Z,96.20
2019-05-22T17:51:03.120Z,97.50
2019-05-22T17:53:43.772Z,98.90
2019-05-22T17:56:24.788Z,99.70
2019-05-22T17:59:06.108Z,99.80
2019-05-22T18:01:46.672Z,97.80
2019-05-22T18:04:27.381Z,97.40
2019-05-22T18:07:08.593Z,98.40
2019-05-22T18:09:49.425Z,99.80
2019-05-22T18:12:30.258Z,99.90
2019-05-22T18:15:11.027Z,99.90
2019-05-22T18:17:51.961Z,99.90
2019-05-22T18:20:42.246Z,99.90
2019-05-22T18:23:15.542Z,99.90
2019-05-22T18:25:56.684Z,99.90
2019-05-22T18:28:37.205Z,99.90
2019-05-22T18:31:17.582Z,99.90
2019-05-22T18:33:58.122Z,99.90
2019-05-22T18:36:38.984Z,99.90
2019-05-22T18:39:19.470Z,99.90
2019-05-22T18:42:00.335Z,99.90
2019-05-22T18:44:41.671Z,99.90
2019-05-22T18:47:22.931Z,99.90
2019-05-22T18:50:04.424Z,99.90
2019-05-22T18:52:45.051Z,99.90
2019-05-22T18:55:25.562Z,99.90
2019-05-22T18:58:06.433Z,99.90
2019-05-22T19:00:47.387Z,99.90
2019-05-22T19:03:28.277Z,99.90
2019-05-22T19:06:09.008Z,99.90
2019-05-22T19:08:49.997Z,99.90
2019-05-22T19:11:30.584Z,99.90
2019-05-22T19:14:12.574Z,99.90
2019-05-22T19:16:53.544Z,99.90
2019-05-22T19:19:34.626Z,99.90
2019-05-22T19:22:15.162Z,99.90
2019-05-22T19:24:55.620Z,99.90
2019-05-22T19:27:36.643Z,99.90
2019-05-22T19:30:18.861Z,99.90
2019-05-22T19:32:59.207Z,99.90
2019-05-22T19:35:40.416Z,99.90
2019-05-22T19:38:22.935Z,99.90
2019-05-22T19:41:03.768Z,99.90
2019-05-22T19:43:44.300Z,99.90
2019-05-22T19:46:24.984Z,99.90
2019-05-22T19:49:05.768Z,99.90
2019-05-22T19:51:46.403Z,99.90
2019-05-22T19:54:26.864Z,99.90
2019-05-22T19:57:08.954Z,99.90
2019-05-22T19:59:50.220Z,99.90
2019-05-22T20:02:31.492Z,99.90
2019-05-22T20:05:12.728Z,99.90
2019-05-22T20:07:53.533Z,99.90
2019-05-22T20:10:34.074Z,99.90
2019-05-22T20:13:15.007Z,99.90
2019-05-22T20:15:56.234Z,99.90
2019-05-22T20:18:36.736Z,99.90
2019-05-22T20:21:17.129Z,99.90
2019-05-22T20:23:57.477Z,99.90
2019-05-22T20:26:38.122Z,99.90
2019-05-22T20:29:18.581Z,99.90
2019-05-22T20:31:59.153Z,99.90
2019-05-22T20:34:40.183Z,99.90
2019-05-22T20:37:21.189Z,99.90
2019-05-22T20:40:02.293Z,99.90
2019-05-22T20:42:44.057Z,99.90
2019-05-22T20:45:25.384Z,99.90
2019-05-22T20:48:06.210Z,99.90
2019-05-22T20:50:46.769Z,99.90
2019-05-22T20:53:28.713Z,99.90
2019-05-22T20:56:11.076Z,99.90
2019-05-22T20:58:52.374Z,99.90
2019-05-22T21:01:33.434Z,99.90
2019-05-22T21:04:16.137Z,99.90
2019-05-22T21:06:59.777Z,99.90
2019-05-22T21:09:39.742Z,99.90
2019-05-22T21:12:20.840Z,99.90
2019-05-22T21:15:01.882Z,99.90
2019-05-22T21:17:44.180Z,99.90
2019-05-22T21:20:26.521Z,99.90
2019-05-22T21:23:07.456Z,99.90
2019-05-22T21:25:47.900Z,99.90
2019-05-22T21:28:28.816Z,99.90
2019-05-22T21:31:09.717Z,99.90
2019-05-22T21:33:51.021Z,99.90
2019-05-22T21:36:31.990Z,99.90
2019-05-22T21:39:13.869Z,99.90
2019-05-22T21:41:54.701Z,99.90
2019-05-22T21:44:35.744Z,99.90
2019-05-22T21:47:18.041Z,99.90
2019-05-22T21:49:58.776Z,99.90
2019-05-22T21:52:40.130Z,99.90
2019-05-22T21:55:21.978Z,99.90
2019-05-22T21:58:03.637Z,99.90
2019-05-22T22:00:49.222Z,99.90
2019-05-22T22:06:37.497Z,99.90
2019-05-22T22:09:19.960Z,99.90
2019-05-22T22:12:01.236Z,99.90
2019-05-22T22:14:42.976Z,99.90
2019-05-22T22:17:25.554Z,99.90
2019-05-22T22:20:06.617Z,99.90
2019-05-22T22:22:49.069Z,99.90
2019-05-22T22:25:31.584Z,99.90
2019-05-22T22:28:13.392Z,99.90
2019-05-22T22:30:58.885Z,99.90
2019-05-22T22:33:40.125Z,99.90
2019-05-22T22:36:20.958Z,99.90
2019-05-22T22:39:03.424Z,99.90
2019-05-22T22:41:45.937Z,99.90
2019-05-22T22:44:26.437Z,99.90
2019-05-22T22:47:11.481Z,99.90
2019-05-22T22:49:52.806Z,99.90
2019-05-22T22:52:33.392Z,99.90
2019-05-22T22:55:14.157Z,99.90
2019-05-22T22:57:55.372Z,99.90
2019-05-22T23:00:37.720Z,99.90
2019-05-22T23:03:18.723Z,99.90
2019-05-22T23:06:01.113Z,99.90
2019-05-22T23:08:42.739Z,99.90
2019-05-22T23:11:25.248Z,99.90
2019-05-22T23:14:06.142Z,99.90
2019-05-22T23:16:46.775Z,99.90
2019-05-22T23:19:27.821Z,99.90
2019-05-22T23:22:10.017Z,99.90
2019-05-22T23:24:51.718Z,99.90
2019-05-22T23:27:33.648Z,99.90
2019-05-22T23:30:14.501Z,99.90
2019-05-22T23:32:54.940Z,99.90
2019-05-22T23:35:35.721Z,99.90
2019-05-22T23:38:16.254Z,99.90
2019-05-22T23:40:57.188Z,99.90
2019-05-22T23:43:38.537Z,99.90
2019-05-22T23:46:19.053Z,99.90
2019-05-22T23:48:59.980Z,99.90
2019-05-22T23:51:40.592Z,99.90
2019-05-22T23:54:21.592Z,99.90
2019-05-22T23:57:04.692Z,99.90
2019-05-22T23:59:46.863Z,99.90
